createdAt,value
2023-02-19T00:01:31.606Z,48.42
2023-02-19T00:04:01.405Z,45.08
2023-02-19T00:06:29.799Z,54.33
2023-02-19T00:08:56.636Z,46.90
2023-02-19T00:11:25.369Z,50.33
2023-02-19T00:13:53.407Z,46.35
2023-02-19T00:16:24.136Z,51.17
2023-02-19T00:18:51.044Z,43.25
2023-02-19T00:21:18.094Z,53.00
2023-02-19T00:23:48.929Z,53.13
2023-02-19T00:26:18.423Z,51.75
2023-02-19T00:28:47.511Z,49.13
2023-02-19T00:31:19.210Z,50.92
2023-02-19T00:33:46.776Z,50.80
2023-02-19T00:36:14.386Z,50.42
2023-02-19T00:38:42.435Z,52.13
2023-02-19T00:41:21.605Z,44.10
2023-02-19T00:43:56.264Z,56.53
2023-02-19T00:46:27.928Z,53.53
2023-02-19T00:48:54.994Z,52.60
2023-02-19T00:51:22.833Z,50.42
2023-02-19T00:53:49.654Z,44.47
2023-02-19T00:56:16.290Z,57.25
2023-02-19T00:58:42.924Z,53.92
2023-02-19T01:01:10.720Z,58.03
2023-02-19T01:03:38.448Z,50.50
2023-02-19T01:06:06.538Z,47.85
2023-02-19T01:08:33.625Z,46.60
2023-02-19T01:11:02.061Z,52.88
2023-02-19T01:13:28.920Z,54.42
2023-02-19T01:16:08.161Z,50.75
2023-02-19T01:18:35.533Z,51.03
2023-02-19T01:21:28.915Z,49.25
2023-02-19T01:23:55.974Z,52.37
2023-02-19T01:26:29.788Z,56.45
2023-02-19T01:28:56.470Z,54.08
2023-02-19T01:31:24.454Z,48.67
2023-02-19T01:33:57.110Z,44.85
2023-02-19T01:36:23.926Z,46.90
2023-02-19T01:38:50.722Z,42.40
2023-02-19T01:41:20.386Z,43.33
2023-02-19T01:44:01.531Z,41.30
2023-02-19T01:46:35.543Z,40.53
2023-02-19T01:49:04.661Z,34.03
2023-02-19T01:51:31.932Z,30.83
2023-02-19T01:54:01.408Z,28.60
2023-02-19T01:56:28.954Z,28.58
2023-02-19T01:58:55.665Z,30.33
2023-02-19T02:01:22.294Z,25.10
2023-02-19T02:03:50.425Z,24.40
2023-02-19T02:06:27.406Z,25.05
2023-02-19T02:09:15.128Z,26.60
2023-02-19T02:11:47.331Z,27.17
2023-02-19T02:14:17.261Z,24.90
2023-02-19T02:17:11.370Z,26.17
2023-02-19T02:20:02.146Z,21.88
2023-02-19T02:22:38.714Z,22.98
2023-02-19T02:25:12.103Z,23.55
2023-02-19T02:28:13.327Z,21.33
2023-02-19T02:30:46.503Z,24.15
2023-02-19T02:33:26.411Z,22.88
2023-02-19T02:36:33.770Z,22.98
2023-02-19T02:39:01.668Z,25.05
2023-02-19T02:41:28.462Z,17.25
2023-02-19T02:43:55.044Z,27.20
2023-02-19T02:46:27.888Z,25.08
2023-02-19T02:48:58.958Z,22.52
2023-02-19T02:51:36.652Z,22.67
2023-02-19T02:54:38.933Z,22.48
2023-02-19T02:57:14.708Z,22.48
2023-02-19T02:59:49.170Z,22.33
2023-02-19T03:02:23.941Z,18.80
2023-02-19T03:05:24.461Z,21.17
2023-02-19T03:08:10.215Z,18.63
2023-02-19T03:10:45.086Z,14.98
2023-02-19T03:13:34.309Z,21.25
2023-02-19T03:16:45.143Z,19.13
2023-02-19T03:19:20.362Z,17.60
2023-02-19T03:21:54.449Z,19.02
2023-02-19T03:24:43.153Z,20.10
2023-02-19T03:27:10.550Z,20.48
2023-02-19T03:29:43.239Z,18.17
2023-02-19T03:32:17.081Z,26.05
2023-02-19T03:35:05.746Z,26.40
2023-02-19T03:37:37.684Z,20.45
2023-02-19T03:40:04.553Z,25.67
2023-02-19T03:42:37.460Z,23.40
2023-02-19T03:45:45.468Z,22.85
2023-02-19T03:48:20.929Z,23.73
2023-02-19T03:51:07.460Z,20.83
2023-02-19T03:53:54.826Z,28.67
2023-02-19T03:56:27.473Z,23.52
2023-02-19T03:59:13.197Z,27.63
2023-02-19T04:01:44.873Z,23.63
2023-02-19T04:04:19.572Z,30.00
2023-02-19T04:06:55.895Z,25.15
2023-02-19T04:09:25.501Z,26.17
2023-02-19T04:11:59.492Z,26.80
2023-02-19T04:14:30.520Z,31.15
2023-02-19T04:17:03.359Z,27.20
2023-02-19T04:19:31.719Z,30.23
2023-02-19T04:21:59.008Z,24.63
2023-02-19T04:24:29.959Z,22.13
2023-02-19T04:26:56.605Z,22.98
2023-02-19T04:29:23.262Z,16.25
2023-02-19T04:31:49.956Z,12.50
2023-02-19T04:34:16.598Z,8.38
2023-02-19T04:36:43.242Z,10.00
2023-02-19T04:39:09.869Z,6.55
2023-02-19T04:41:36.453Z,8.40
2023-02-19T04:44:02.990Z,6.53
2023-02-19T04:46:29.645Z,6.50
2023-02-19T04:48:56.245Z,5.97
2023-02-19T04:51:22.921Z,6.63
2023-02-19T04:53:49.641Z,6.57
2023-02-19T04:56:17.096Z,5.70
2023-02-19T04:58:44.543Z,8.00
2023-02-19T05:01:11.944Z,7.88
2023-02-19T05:03:38.935Z,5.90
2023-02-19T05:06:07.894Z,7.22
2023-02-19T05:08:34.648Z,5.28
2023-02-19T05:11:02.302Z,5.45
2023-02-19T05:13:29.044Z,5.25
2023-02-19T05:16:04.444Z,6.22
2023-02-19T05:18:31.869Z,6.10
2023-02-19T05:20:59.277Z,7.65
2023-02-19T05:23:26.979Z,5.85
2023-02-19T05:25:53.668Z,5.35
2023-02-19T05:28:20.718Z,4.93
2023-02-19T05:30:49.504Z,7.40
2023-02-19T05:33:17.221Z,8.27
2023-02-19T05:35:49.012Z,8.68
2023-02-19T05:38:16.213Z,7.05
2023-02-19T05:40:43.084Z,5.43
2023-02-19T05:43:10.296Z,8.73
2023-02-19T05:45:37.088Z,6.75
2023-02-19T05:48:04.269Z,6.28
2023-02-19T05:50:32.707Z,6.00
2023-02-19T05:53:11.284Z,5.35
2023-02-19T05:55:37.865Z,7.53
2023-02-19T05:58:05.322Z,6.72
2023-02-19T06:00:33.340Z,6.72
2023-02-19T06:03:00.180Z,7.05
2023-02-19T06:05:26.777Z,6.82
2023-02-19T06:07:53.387Z,7.32
2023-02-19T06:10:19.976Z,7.05
2023-02-19T06:12:46.535Z,8.65
2023-02-19T06:15:13.114Z,9.35
2023-02-19T06:17:39.740Z,10.88
2023-02-19T06:20:06.734Z,9.43
2023-02-19T06:22:33.332Z,10.13
2023-02-19T06:24:59.876Z,9.43
2023-02-19T06:27:26.428Z,13.98
2023-02-19T06:29:53.034Z,9.07
2023-02-19T06:32:19.734Z,8.63
2023-02-19T06:34:46.371Z,8.98
2023-02-19T06:37:12.937Z,9.05
2023-02-19T06:39:39.517Z,11.18
2023-02-19T06:42:06.091Z,10.23
2023-02-19T06:44:32.704Z,7.45
2023-02-19T06:46:59.255Z,9.70
2023-02-19T06:49:26.162Z,10.73
2023-02-19T06:51:52.816Z,7.85
2023-02-19T06:54:19.423Z,7.75
2023-02-19T06:56:47.127Z,6.43
2023-02-19T06:59:16.991Z,6.07
2023-02-19T07:01:44.711Z,7.45
2023-02-19T07:04:11.796Z,7.28
2023-02-19T07:06:38.613Z,7.43
2023-02-19T07:09:06.709Z,7.03
2023-02-19T07:11:34.369Z,9.05
2023-02-19T07:14:03.275Z,7.43
2023-02-19T07:16:30.324Z,5.38
2023-02-19T07:18:58.291Z,8.00
2023-02-19T07:21:25.127Z,6.53
2023-02-19T07:23:52.222Z,6.20
2023-02-19T07:26:19.773Z,9.68
2023-02-19T07:28:48.164Z,6.78
2023-02-19T07:31:15.964Z,6.47
2023-02-19T07:33:44.439Z,6.18
2023-02-19T07:36:11.527Z,7.07
2023-02-19T07:38:38.192Z,11.35
2023-02-19T07:41:05.835Z,7.72
2023-02-19T07:43:34.969Z,3.67
2023-02-19T07:46:05.969Z,7.70
2023-02-19T07:48:34.086Z,8.18
2023-02-19T07:51:01.679Z,8.48
2023-02-19T07:53:29.090Z,7.10
2023-02-19T07:56:00.592Z,9.00
2023-02-19T07:58:27.550Z,6.70
2023-02-19T08:00:54.130Z,8.95
2023-02-19T08:03:20.772Z,3.40
2023-02-19T08:05:49.844Z,5.40
2023-02-19T08:08:17.124Z,5.95
2023-02-19T08:11:02.368Z,4.35
2023-02-19T08:13:30.811Z,6.78
2023-02-19T08:16:18.335Z,6.72
2023-02-19T08:18:48.063Z,8.02
2023-02-19T08:21:14.964Z,5.43
2023-02-19T08:23:41.584Z,5.60
2023-02-19T08:26:09.769Z,4.85
2023-02-19T08:28:36.552Z,5.60
2023-02-19T08:31:06.432Z,3.92
2023-02-19T08:33:33.059Z,7.55
2023-02-19T08:36:07.583Z,4.78
2023-02-19T08:38:35.975Z,7.43
2023-02-19T08:41:10.961Z,5.00
2023-02-19T08:43:37.796Z,5.78
2023-02-19T08:46:04.695Z,4.30
2023-02-19T08:48:31.342Z,4.90
2023-02-19T08:51:00.425Z,5.00
2023-02-19T08:53:27.051Z,4.72
2023-02-19T08:55:53.719Z,3.58
2023-02-19T08:58:20.314Z,2.95
2023-02-19T09:00:47.163Z,5.05
2023-02-19T09:03:13.755Z,8.35
2023-02-19T09:05:40.696Z,6.28
2023-02-19T09:08:07.236Z,3.83
2023-02-19T09:10:33.824Z,5.30
2023-02-19T09:13:00.802Z,2.78
2023-02-19T09:15:29.508Z,3.40
2023-02-19T09:17:56.368Z,4.07
2023-02-19T09:20:23.042Z,3.58
2023-02-19T09:22:49.653Z,4.25
2023-02-19T09:25:16.262Z,4.25
2023-02-19T09:27:42.994Z,11.60
2023-02-19T09:30:09.907Z,4.88
2023-02-19T09:32:36.544Z,3.95
2023-02-19T09:35:03.077Z,3.88
2023-02-19T09:37:29.662Z,1.85
2023-02-19T09:39:56.223Z,4.45
2023-02-19T09:42:25.102Z,2.42
2023-02-19T09:44:54.150Z,6.43
2023-02-19T09:47:23.428Z,2.55
2023-02-19T09:49:54.380Z,2.67
2023-02-19T09:52:39.690Z,1.90
2023-02-19T09:55:27.653Z,2.13
2023-02-19T09:57:54.219Z,4.28
2023-02-19T10:00:21.789Z,2.40
2023-02-19T10:02:52.129Z,2.35
2023-02-19T10:05:18.874Z,3.22
2023-02-19T10:07:48.145Z,2.08
2023-02-19T10:10:14.711Z,3.17
2023-02-19T10:12:46.721Z,1.92
2023-02-19T10:15:30.130Z,3.95
2023-02-19T10:17:56.710Z,2.35
2023-02-19T10:20:27.701Z,1.67
2023-02-19T10:23:03.665Z,2.47
2023-02-19T10:25:31.101Z,3.08
2023-02-19T10:27:59.433Z,4.88
2023-02-19T10:30:30.576Z,3.10
2023-02-19T10:33:14.886Z,3.03
2023-02-19T10:36:04.116Z,1.65
2023-02-19T10:38:33.623Z,2.40
2023-02-19T10:41:14.896Z,3.20
2023-02-19T10:43:45.231Z,3.22
2023-02-19T10:46:18.218Z,3.83
2023-02-19T10:48:59.191Z,2.70
2023-02-19T10:51:36.893Z,2.90
2023-02-19T10:54:21.628Z,1.85
2023-02-19T10:56:48.303Z,1.27
2023-02-19T10:59:23.568Z,0.85
2023-02-19T11:01:57.680Z,2.47
2023-02-19T11:04:25.964Z,4.47
2023-02-19T11:06:52.932Z,1.55
2023-02-19T11:09:26.673Z,2.92
2023-02-19T11:11:54.330Z,1.10
2023-02-19T11:14:24.169Z,2.55
2023-02-19T11:16:56.439Z,2.17
2023-02-19T11:19:24.751Z,3.55
2023-02-19T11:21:51.725Z,2.20
2023-02-19T11:24:34.043Z,3.80
2023-02-19T11:27:05.941Z,2.47
2023-02-19T11:29:34.978Z,4.95
2023-02-19T11:32:37.276Z,2.00
2023-02-19T11:35:33.386Z,4.38
2023-02-19T11:38:01.353Z,2.10
2023-02-19T11:40:40.186Z,2.60
2023-02-19T11:43:40.550Z,0.70
2023-02-19T11:46:32.815Z,1.00
2023-02-19T11:49:29.182Z,2.63
2023-02-19T11:52:03.675Z,2.88
2023-02-19T11:54:43.556Z,2.28
2023-02-19T11:57:22.671Z,2.28
2023-02-19T12:00:27.225Z,2.30
2023-02-19T12:05:41.513Z,2.33
2023-02-19T12:08:30.628Z,1.48
2023-02-19T12:11:00.070Z,2.30
2023-02-19T12:14:14.774Z,2.28
2023-02-19T12:16:50.190Z,1.40
2023-02-19T12:19:39.250Z,2.03
2023-02-19T12:22:21.329Z,2.70
2023-02-19T12:25:06.700Z,2.33
2023-02-19T12:27:51.678Z,0.80
2023-02-19T12:30:24.493Z,1.67
2023-02-19T12:33:06.069Z,1.08
2023-02-19T12:35:42.802Z,2.42
2023-02-19T12:38:18.074Z,2.38
2023-02-19T12:41:29.080Z,0.75
2023-02-19T12:44:00.377Z,2.67
2023-02-19T12:46:39.706Z,3.75
2023-02-19T12:49:22.683Z,2.78
2023-02-19T12:51:50.861Z,2.00
2023-02-19T12:54:28.440Z,1.45
2023-02-19T12:56:57.861Z,7.88
2023-02-19T12:59:30.026Z,3.83
2023-02-19T13:02:05.958Z,2.97
2023-02-19T13:04:47.877Z,2.67
2023-02-19T13:07:17.653Z,2.42
2023-02-19T13:09:59.303Z,2.60
2023-02-19T13:12:29.677Z,2.60
2023-02-19T13:15:16.828Z,1.10
2023-02-19T13:17:55.362Z,1.52
2023-02-19T13:20:36.342Z,1.58
2023-02-19T13:23:35.044Z,1.60
2023-02-19T13:26:26.633Z,2.20
2023-02-19T13:29:17.094Z,2.00
2023-02-19T13:32:14.125Z,1.83
2023-02-19T13:34:43.662Z,2.60
2023-02-19T13:37:11.402Z,1.75
2023-02-19T13:39:51.911Z,3.03
2023-02-19T13:42:33.395Z,2.65
2023-02-19T13:45:01.416Z,2.10
2023-02-19T13:47:48.024Z,2.22
2023-02-19T13:50:27.935Z,2.33
2023-02-19T13:52:56.109Z,21.00
2023-02-19T13:55:52.069Z,20.95
2023-02-19T13:58:34.014Z,4.25
2023-02-19T14:01:02.854Z,2.97
2023-02-19T14:03:35.695Z,1.88
2023-02-19T14:06:06.046Z,1.95
2023-02-19T14:08:44.780Z,2.30
2023-02-19T14:11:14.305Z,4.80
2023-02-19T14:13:50.053Z,2.63
2023-02-19T14:16:33.411Z,4.28
2023-02-19T14:18:59.989Z,3.70
2023-02-19T14:21:35.933Z,3.15
2023-02-19T14:24:02.758Z,2.50
2023-02-19T14:26:31.935Z,3.55
2023-02-19T14:28:59.266Z,4.70
2023-02-19T14:31:33.329Z,2.30
2023-02-19T14:34:22.312Z,3.33
2023-02-19T14:36:55.728Z,4.15
2023-02-19T14:39:27.319Z,9.95
2023-02-19T14:41:57.260Z,115.68
2023-02-19T14:44:26.478Z,46.85
2023-02-19T14:47:03.338Z,60.08
2023-02-19T14:49:49.242Z,70.43
2023-02-19T14:52:20.417Z,70.45
2023-02-19T14:54:55.754Z,9.05
2023-02-19T14:57:26.125Z,4.55
2023-02-19T15:00:00.689Z,4.40
2023-02-19T15:02:29.433Z,2.22
2023-02-19T15:04:56.538Z,3.03
2023-02-19T15:07:30.554Z,2.47
2023-02-19T15:10:05.007Z,1.95
2023-02-19T15:12:42.095Z,3.83
2023-02-19T15:15:09.484Z,2.67
2023-02-19T15:17:38.334Z,1.92
2023-02-19T15:20:10.659Z,3.22
2023-02-19T15:22:39.863Z,3.03
2023-02-19T15:25:07.323Z,3.17
2023-02-19T15:27:35.087Z,1.58
2023-02-19T15:30:01.700Z,2.67
2023-02-19T15:32:28.519Z,2.72
2023-02-19T15:35:00.591Z,2.78
2023-02-19T15:37:30.197Z,1.60
2023-02-19T15:39:59.274Z,3.38
2023-02-19T15:42:34.752Z,5.38
2023-02-19T15:45:17.664Z,1.98
2023-02-19T15:47:56.320Z,2.35
2023-02-19T15:50:27.153Z,1.95
2023-02-19T15:52:59.764Z,2.55
2023-02-19T15:55:45.934Z,2.60
2023-02-19T15:58:21.480Z,3.30
2023-02-19T16:00:53.032Z,3.33
2023-02-19T16:03:22.198Z,3.55
2023-02-19T16:06:05.100Z,2.95
2023-02-19T16:08:33.633Z,2.35
2023-02-19T16:11:06.515Z,2.40
2023-02-19T16:13:34.341Z,3.42
2023-02-19T16:16:03.416Z,4.45
2023-02-19T16:18:30.400Z,9.68
2023-02-19T16:20:57.178Z,28.77
2023-02-19T16:23:25.386Z,60.60
2023-02-19T16:26:00.630Z,26.33
2023-02-19T16:28:29.503Z,27.52
2023-02-19T16:31:04.330Z,44.58
2023-02-19T16:33:37.145Z,48.83
2023-02-19T16:36:34.907Z,110.10
2023-02-19T16:39:07.424Z,107.07
2023-02-19T16:42:06.664Z,32.33
2023-02-19T16:44:35.788Z,17.35
2023-02-19T16:47:16.565Z,10.45
2023-02-19T16:49:44.160Z,18.42
2023-02-19T16:52:15.297Z,9.45
2023-02-19T16:54:41.949Z,6.10
2023-02-19T16:57:08.537Z,1.83
2023-02-19T16:59:35.096Z,6.20
2023-02-19T17:02:04.729Z,2.80
2023-02-19T17:04:31.476Z,2.65
2023-02-19T17:06:58.347Z,7.00
2023-02-19T17:09:24.995Z,8.23
2023-02-19T17:11:51.603Z,3.72
2023-02-19T17:14:18.266Z,3.25
2023-02-19T17:16:44.975Z,3.33
2023-02-19T17:19:16.968Z,5.85
2023-02-19T17:21:45.161Z,6.15
2023-02-19T17:24:12.152Z,5.82
2023-02-19T17:26:38.847Z,13.35
2023-02-19T17:29:06.775Z,8.77
2023-02-19T17:31:34.226Z,48.08
2023-02-19T17:34:01.668Z,13.13
2023-02-19T17:36:30.807Z,7.82
2023-02-19T17:38:58.750Z,15.63
2023-02-19T17:41:25.520Z,8.40
2023-02-19T17:43:52.205Z,13.18
2023-02-19T17:46:21.257Z,8.23
2023-02-19T17:48:47.907Z,13.45
2023-02-19T17:51:14.761Z,11.48
2023-02-19T17:53:41.832Z,5.20
2023-02-19T17:56:09.032Z,7.28
2023-02-19T17:58:36.584Z,11.55
2023-02-19T18:01:03.202Z,8.70
2023-02-19T18:03:30.097Z,5.05
2023-02-19T18:05:56.739Z,8.35
2023-02-19T18:08:23.327Z,6.32
2023-02-19T18:10:49.966Z,6.38
2023-02-19T18:13:16.636Z,6.35
2023-02-19T18:15:43.279Z,6.90
2023-02-19T18:18:10.091Z,9.05
2023-02-19T18:20:36.939Z,6.30
2023-02-19T18:23:04.078Z,9.93
2023-02-19T18:25:30.760Z,7.43
2023-02-19T18:27:59.339Z,9.45
2023-02-19T18:30:26.217Z,6.13
2023-02-19T18:32:52.839Z,4.75
2023-02-19T18:35:20.565Z,8.82
2023-02-19T18:37:53.631Z,9.02
2023-02-19T18:40:21.625Z,8.02
2023-02-19T18:42:48.316Z,10.35
2023-02-19T18:45:15.038Z,10.07
2023-02-19T18:47:41.638Z,10.82
2023-02-19T18:50:09.748Z,11.57
2023-02-19T18:52:36.448Z,15.40
2023-02-19T18:55:03.244Z,9.35
2023-02-19T18:57:29.894Z,8.45
2023-02-19T18:59:56.485Z,6.13
2023-02-19T19:02:23.353Z,10.77
2023-02-19T19:04:51.831Z,11.27
2023-02-19T19:07:19.105Z,8.73
2023-02-19T19:09:45.870Z,38.55
2023-02-19T19:12:12.735Z,16.40
2023-02-19T19:14:39.416Z,14.75
2023-02-19T19:17:05.995Z,24.95
2023-02-19T19:19:32.656Z,30.02
2023-02-19T19:21:59.285Z,13.90
2023-02-19T19:24:25.961Z,7.82
2023-02-19T19:26:53.127Z,7.22
2023-02-19T19:29:21.991Z,6.43
2023-02-19T19:31:48.986Z,6.03
2023-02-19T19:34:15.860Z,6.15
2023-02-19T19:36:42.478Z,6.95
2023-02-19T19:39:09.255Z,7.85
2023-02-19T19:41:35.881Z,9.10
2023-02-19T19:44:04.801Z,6.10
2023-02-19T19:46:31.829Z,9.13
2023-02-19T19:48:58.642Z,7.13
2023-02-19T19:51:33.557Z,7.03
2023-02-19T19:54:01.032Z,10.13
2023-02-19T19:56:27.724Z,6.20
2023-02-19T19:58:54.353Z,10.63
2023-02-19T20:01:21.367Z,7.07
2023-02-19T20:03:48.290Z,10.43
2023-02-19T20:06:14.926Z,7.30
2023-02-19T20:08:41.563Z,6.22
2023-02-19T20:11:08.241Z,6.70
2023-02-19T20:13:34.864Z,7.10
2023-02-19T20:16:01.630Z,6.63
2023-02-19T20:18:28.515Z,7.40
2023-02-19T20:20:55.346Z,6.30
2023-02-19T20:23:22.001Z,8.15
2023-02-19T20:25:48.641Z,6.75
2023-02-19T20:28:15.236Z,7.80
2023-02-19T20:30:43.635Z,6.82
2023-02-19T20:33:10.314Z,6.97
2023-02-19T20:35:36.937Z,4.78
2023-02-19T20:38:03.522Z,6.35
2023-02-19T20:40:31.294Z,4.07
2023-02-19T20:43:00.679Z,5.53
2023-02-19T20:45:28.329Z,6.22
2023-02-19T20:47:54.955Z,5.78
2023-02-19T20:50:23.222Z,4.65
2023-02-19T20:52:50.104Z,3.92
2023-02-19T20:55:17.041Z,6.53
2023-02-19T20:57:43.626Z,5.57
2023-02-19T21:00:11.449Z,4.00
2023-02-19T21:02:38.204Z,4.88
2023-02-19T21:05:05.084Z,5.50
2023-02-19T21:07:31.740Z,3.38
2023-02-19T21:09:58.345Z,3.70
2023-02-19T21:12:24.962Z,5.25
2023-02-19T21:14:51.560Z,3.67
2023-02-19T21:17:18.259Z,2.97
2023-02-19T21:19:44.830Z,2.97
2023-02-19T21:22:11.558Z,4.38
2023-02-19T21:24:38.162Z,3.58
2023-02-19T21:27:04.751Z,8.35
2023-02-19T21:29:31.309Z,5.00
2023-02-19T21:31:58.253Z,4.35
2023-02-19T21:34:27.789Z,6.50
2023-02-19T21:36:55.155Z,4.05
2023-02-19T21:39:23.765Z,3.08
2023-02-19T21:41:50.380Z,4.63
2023-02-19T21:44:17.267Z,3.22
2023-02-19T21:46:43.959Z,7.15
2023-02-19T21:49:11.833Z,5.53
2023-02-19T21:51:40.733Z,4.85
2023-02-19T21:54:08.089Z,8.30
2023-02-19T21:56:36.586Z,5.35
2023-02-19T21:59:03.756Z,7.18
2023-02-19T22:01:35.425Z,5.97
2023-02-19T22:04:02.166Z,7.38
2023-02-19T22:06:30.491Z,5.32
2023-02-19T22:08:58.830Z,7.05
2023-02-19T22:11:25.897Z,8.00
2023-02-19T22:13:52.586Z,7.40
2023-02-19T22:16:19.417Z,9.90
2023-02-19T22:18:50.754Z,9.60
2023-02-19T22:21:17.624Z,8.85
2023-02-19T22:23:45.843Z,8.85
2023-02-19T22:26:23.447Z,9.60
2023-02-19T22:28:50.592Z,6.63
2023-02-19T22:31:18.941Z,8.75
2023-02-19T22:33:45.703Z,7.70
2023-02-19T22:36:15.087Z,5.55
2023-02-19T22:38:41.637Z,9.35
2023-02-19T22:41:08.382Z,5.40
2023-02-19T22:43:34.974Z,8.23
2023-02-19T22:46:01.675Z,7.78
2023-02-19T22:48:30.512Z,7.70
2023-02-19T22:50:58.910Z,5.63
2023-02-19T22:53:25.595Z,5.25
2023-02-19T22:55:52.323Z,7.35
2023-02-19T22:58:18.948Z,5.10
2023-02-19T23:00:45.629Z,5.00
2023-02-19T23:03:12.725Z,5.93
2023-02-19T23:05:39.301Z,7.00
2023-02-19T23:08:05.857Z,7.40
2023-02-19T23:10:33.018Z,5.05
2023-02-19T23:12:59.666Z,8.18
2023-02-19T23:15:26.245Z,5.90
2023-02-19T23:17:52.988Z,6.80
2023-02-19T23:20:19.566Z,5.93
2023-02-19T23:22:46.187Z,6.65
2023-02-19T23:25:13.059Z,7.38
2023-02-19T23:27:39.679Z,8.00
2023-02-19T23:30:06.974Z,5.93
2023-02-19T23:32:33.610Z,7.03
2023-02-19T23:35:00.322Z,6.43
2023-02-19T23:37:27.096Z,7.22
2023-02-19T23:39:53.659Z,8.30
2023-02-19T23:42:20.222Z,7.75
2023-02-19T23:44:47.496Z,10.25
2023-02-19T23:47:14.412Z,8.82
2023-02-19T23:49:41.334Z,9.52
2023-02-19T23:52:08.169Z,9.27
2023-02-19T23:54:34.901Z,11.55
2023-02-19T23:57:01.626Z,9.77
2023-02-19T23:59:28.250Z,10.20
